Viking Queen — WDB9919 — position and weather

sailwx.info

Track history (hours):
 
Tides and Currents Weather Stations Pressure Air Temp Water Temp Dewpoint Dewpoint Depression Visibility Wind Speed Wind Dir Waves Ship Positions

Viking Queen

Owner: American River Transportation Company, St Louis, MO. More information available from US FCC via Universal Licensing System and Coast Guard Vessel Documentation Center.

Last reported at 2017-Aug-18 08:41 UTC. Time now 2017-Aug-23 02:07 UTC.
Position N 33°14' W 091°07'.

Length 58 m; draft 3 m.

Type: Towing. MMSI: 366985050.

Date/timePositionNaut miles runAvg speedWind from/ knotsBaromVisibWave heightAir tempDewpointWater temp
2017-Aug-18 08:41N 33°14' W 091°07'2 4.8
2017-Aug-18 08:20N 33°13' W 091°06'2 4.8
2017-Aug-18 08:00N 33°11' W 091°05'2 5.0
2017-Aug-18 07:30N 33°09' W 091°05'6 4.7
2017-Aug-18 06:19N 33°05' W 091°10'2 5.9
2017-Aug-18 05:59N 33°03' W 091°09'3 4.9
2017-Aug-18 05:20N 33°00' W 091°09'2 5.3
2017-Aug-18 05:01N 32°58' W 091°10'3 4.3
2017-Aug-18 04:15N 32°57' W 091°06'12 2.3
2017-Aug-17 23:09N 32°46' W 091°09'1 5.5
2017-Aug-17 23:00N 32°45' W 091°09'4 4.1
2017-Aug-17 22:06N 32°44' W 091°05'1 5.4
2017-Aug-17 21:59N 32°44' W 091°04'4 2.9
2017-Aug-17 20:42N 32°41' W 091°06'1 3.8
2017-Aug-17 20:30N 32°40' W 091°07'2 4.6
2017-Aug-17 20:00N 32°39' W 091°09'2 4.1
2017-Aug-17 19:31N 32°37' W 091°09'2 3.6
2017-Aug-17 18:54N 32°35' W 091°08'2 5.0
2017-Aug-17 18:30N 32°34' W 091°06'2 4.9
2017-Aug-17 18:00N 32°31' W 091°06'3 5.3
2017-Aug-17 17:30N 32°29' W 091°07'3 5.6
2017-Aug-17 17:00N 32°27' W 091°04'3 5.7
2017-Aug-17 16:31N 32°26' W 091°01'2 4.6
2017-Aug-17 16:01N 32°24' W 090°59'3 5.5
2017-Aug-17 15:31N 32°21' W 090°60'3 5.7
2017-Aug-17 15:00N 32°21' W 090°56'2 4.7
2017-Aug-17 14:30N 32°20' W 090°54'2 4.2
2017-Aug-17 14:00N 32°18' W 090°55'3 5.6
2017-Aug-17 13:31N 32°16' W 090°58'2 4.9
2017-Aug-17 13:00N 32°14' W 090°59'3 5.4
2017-Aug-17 12:30N 32°11' W 090°60'3 5.3
2017-Aug-17 12:00N 32°09' W 091°00'2 4.5
2017-Aug-17 11:30N 32°07' W 091°02'3 5.2
2017-Aug-17 10:57N 32°08' W 091°06'2 3.8
2017-Aug-17 10:30N 32°06' W 091°06'4 3.6
2017-Aug-17 09:26N 32°03' W 091°03'  
2017-Aug-13 16:15N 31°58' W 091°11'3 7.2
2017-Aug-13 15:47N 31°59' W 091°08'2 8.2
2017-Aug-13 15:30N 31°60' W 091°05'5 8.1
2017-Aug-13 14:54N 32°05' W 091°04'3 8.7
2017-Aug-13 14:30N 32°07' W 091°07'3 6.1
2017-Aug-13 14:00N 32°07' W 091°03'4 7.1
2017-Aug-13 13:30N 32°10' W 091°00'5 9.0
2017-Aug-13 13:00N 32°14' W 090°59'4 8.8
2017-Aug-13 12:30N 32°18' W 090°56'3 6.2
2017-Aug-13 12:00N 32°21' W 090°55'4 7.1
2017-Aug-13 11:30N 32°21' W 090°59'4 7.4
2017-Aug-13 11:00N 32°25' W 090°60'4 8.6
2017-Aug-13 10:30N 32°27' W 091°04'4 8.0
2017-Aug-13 10:00N 32°30' W 091°07'5 8.0
2017-Aug-13 09:24N 32°35' W 091°07'5 7.5
2017-Aug-13 08:42N 32°40' W 091°08'  
Track history (hours):
 
Tides and Currents Weather Stations Pressure Air Temp Water Temp Dewpoint Dewpoint Depression Visibility Wind Speed Wind Dir Waves Ship Positions

Viking Queen

Owner: American River Transportation Company, St Louis, MO. More information available from US FCC via Universal Licensing System and Coast Guard Vessel Documentation Center.

Last reported at 2017-Aug-18 08:41 UTC. Time now 2017-Aug-23 02:07 UTC.
Position N 33°14' W 091°07'.

Length 58 m; draft 3 m.

Type: Towing. MMSI: 366985050.

Date/timePositionNaut miles runAvg speedWind from/ knotsBaromVisibWave heightAir tempDewpointWater temp
2017-Aug-18 08:41N 33°14' W 091°07'2 4.8
2017-Aug-18 08:20N 33°13' W 091°06'2 4.8
2017-Aug-18 08:00N 33°11' W 091°05'2 5.0
2017-Aug-18 07:30N 33°09' W 091°05'6 4.7
2017-Aug-18 06:19N 33°05' W 091°10'2 5.9
2017-Aug-18 05:59N 33°03' W 091°09'3 4.9
2017-Aug-18 05:20N 33°00' W 091°09'2 5.3
2017-Aug-18 05:01N 32°58' W 091°10'3 4.3
2017-Aug-18 04:15N 32°57' W 091°06'12 2.3
2017-Aug-17 23:09N 32°46' W 091°09'1 5.5
2017-Aug-17 23:00N 32°45' W 091°09'4 4.1
2017-Aug-17 22:06N 32°44' W 091°05'1 5.4
2017-Aug-17 21:59N 32°44' W 091°04'4 2.9
2017-Aug-17 20:42N 32°41' W 091°06'1 3.8
2017-Aug-17 20:30N 32°40' W 091°07'2 4.6
2017-Aug-17 20:00N 32°39' W 091°09'2 4.1
2017-Aug-17 19:31N 32°37' W 091°09'2 3.6
2017-Aug-17 18:54N 32°35' W 091°08'2 5.0
2017-Aug-17 18:30N 32°34' W 091°06'2 4.9
2017-Aug-17 18:00N 32°31' W 091°06'3 5.3
2017-Aug-17 17:30N 32°29' W 091°07'3 5.6
2017-Aug-17 17:00N 32°27' W 091°04'3 5.7
2017-Aug-17 16:31N 32°26' W 091°01'2 4.6
2017-Aug-17 16:01N 32°24' W 090°59'3 5.5
2017-Aug-17 15:31N 32°21' W 090°60'3 5.7
2017-Aug-17 15:00N 32°21' W 090°56'2 4.7
2017-Aug-17 14:30N 32°20' W 090°54'2 4.2
2017-Aug-17 14:00N 32°18' W 090°55'3 5.6
2017-Aug-17 13:31N 32°16' W 090°58'2 4.9
2017-Aug-17 13:00N 32°14' W 090°59'3 5.4
2017-Aug-17 12:30N 32°11' W 090°60'3 5.3
2017-Aug-17 12:00N 32°09' W 091°00'2 4.5
2017-Aug-17 11:30N 32°07' W 091°02'3 5.2
2017-Aug-17 10:57N 32°08' W 091°06'2 3.8
2017-Aug-17 10:30N 32°06' W 091°06'4 3.6
2017-Aug-17 09:26N 32°03' W 091°03'  
2017-Aug-13 16:15N 31°58' W 091°11'3 7.2
2017-Aug-13 15:47N 31°59' W 091°08'2 8.2
2017-Aug-13 15:30N 31°60' W 091°05'5 8.1
2017-Aug-13 14:54N 32°05' W 091°04'3 8.7
2017-Aug-13 14:30N 32°07' W 091°07'3 6.1
2017-Aug-13 14:00N 32°07' W 091°03'4 7.1
2017-Aug-13 13:30N 32°10' W 091°00'5 9.0
2017-Aug-13 13:00N 32°14' W 090°59'4 8.8
2017-Aug-13 12:30N 32°18' W 090°56'3 6.2
2017-Aug-13 12:00N 32°21' W 090°55'4 7.1
2017-Aug-13 11:30N 32°21' W 090°59'4 7.4
2017-Aug-13 11:00N 32°25' W 090°60'4 8.6
2017-Aug-13 10:30N 32°27' W 091°04'4 8.0
2017-Aug-13 10:00N 32°30' W 091°07'5 8.0
2017-Aug-13 09:24N 32°35' W 091°07'5 7.5
2017-Aug-13 08:42N 32°40' W 091°08'  

Dump ship's entire track history